Mannsville, Oklahoma
Current Conditions -  °F | °C
As of 5:35 AM on Monday 24 Nov 2014 (Local Time) from KADM Reporting Station
Clear Clear  
Wind Chill:   Ceiling: Unl
Heat Index:   Visibility: 10mi
Dew Point:   Wind: 0mph
Humidity: 89%   Direction: NA
Pressure: 29.92"   Gusts: NA
Location:  34.19°N, 96.88°W
Report Text: KADM 241135Z AUTO 00000KT 10SM CLR 03/01 A2992 RMK AO2 T00260010
Loading
Personal Weather Stations






























Interactive Weather Map New forecast layout! Learn more

10-Day Weather Forecast

Advertisements
Track Severe Weather on mobile